sensor_id;sensor_type;location;lat;lon;timestamp;P1;durP1;ratioP1;P2;durP2;ratioP2
57113;SDS011;42994;51.606;9.988;2022-12-20T00:01:18;27.60;;;15.38;;
57113;SDS011;42994;51.606;9.988;2022-12-20T00:03:47;29.80;;;16.58;;
57113;SDS011;42994;51.606;9.988;2022-12-20T00:06:15;31.20;;;16.08;;
57113;SDS011;42994;51.606;9.988;2022-12-20T00:08:43;27.10;;;15.35;;
57113;SDS011;42994;51.606;9.988;2022-12-20T00:11:10;24.55;;;14.35;;
57113;SDS011;42994;51.606;9.988;2022-12-20T00:13:39;27.38;;;14.25;;
57113;SDS011;42994;51.606;9.988;2022-12-20T00:16:06;26.20;;;14.73;;
57113;SDS011;42994;51.606;9.988;2022-12-20T00:18:34;29.00;;;14.88;;
57113;SDS011;42994;51.606;9.988;2022-12-20T00:21:02;28.58;;;14.95;;
57113;SDS011;42994;51.606;9.988;2022-12-20T00:23:31;26.58;;;14.60;;
57113;SDS011;42994;51.606;9.988;2022-12-20T00:26:00;22.67;;;14.48;;
57113;SDS011;42994;51.606;9.988;2022-12-20T00:28:27;23.50;;;14.10;;
57113;SDS011;42994;51.606;9.988;2022-12-20T00:30:55;28.48;;;14.25;;
57113;SDS011;42994;51.606;9.988;2022-12-20T00:33:22;24.65;;;13.73;;
57113;SDS011;42994;51.606;9.988;2022-12-20T00:35:49;29.52;;;15.18;;
57113;SDS011;42994;51.606;9.988;2022-12-20T00:38:15;25.30;;;13.57;;
57113;SDS011;42994;51.606;9.988;2022-12-20T00:40:42;23.25;;;12.55;;
57113;SDS011;42994;51.606;9.988;2022-12-20T00:43:09;23.95;;;13.52;;
57113;SDS011;42994;51.606;9.988;2022-12-20T00:45:36;28.88;;;13.75;;
57113;SDS011;42994;51.606;9.988;2022-12-20T00:48:05;28.23;;;14.23;;
57113;SDS011;42994;51.606;9.988;2022-12-20T00:50:32;26.27;;;13.10;;
57113;SDS011;42994;51.606;9.988;2022-12-20T00:52:58;25.80;;;13.25;;
57113;SDS011;42994;51.606;9.988;2022-12-20T00:55:25;27.67;;;13.05;;
57113;SDS011;42994;51.606;9.988;2022-12-20T00:57:51;23.80;;;13.15;;
57113;SDS011;42994;51.606;9.988;2022-12-20T01:00:19;27.67;;;13.60;;
57113;SDS011;42994;51.606;9.988;2022-12-20T01:02:46;26.58;;;13.52;;
57113;SDS011;42994;51.606;9.988;2022-12-20T01:05:14;23.27;;;12.57;;
57113;SDS011;42994;51.606;9.988;2022-12-20T01:07:41;18.73;;;11.40;;
57113;SDS011;42994;51.606;9.988;2022-12-20T01:10:08;24.75;;;13.27;;
57113;SDS011;42994;51.606;9.988;2022-12-20T01:12:36;23.17;;;13.10;;
57113;SDS011;42994;51.606;9.988;2022-12-20T01:15:03;20.92;;;12.18;;
57113;SDS011;42994;51.606;9.988;2022-12-20T01:17:30;22.63;;;12.52;;
57113;SDS011;42994;51.606;9.988;2022-12-20T01:19:57;23.38;;;12.38;;
57113;SDS011;42994;51.606;9.988;2022-12-20T01:22:25;27.52;;;12.82;;
57113;SDS011;42994;51.606;9.988;2022-12-20T01:24:52;20.70;;;11.50;;
57113;SDS011;42994;51.606;9.988;2022-12-20T01:27:18;21.83;;;11.77;;
57113;SDS011;42994;51.606;9.988;2022-12-20T01:29:45;21.88;;;12.73;;
57113;SDS011;42994;51.606;9.988;2022-12-20T01:32:12;27.10;;;13.13;;
57113;SDS011;42994;51.606;9.988;2022-12-20T01:34:39;24.25;;;12.80;;
57113;SDS011;42994;51.606;9.988;2022-12-20T01:37:06;24.70;;;12.77;;
57113;SDS011;42994;51.606;9.988;2022-12-20T01:39:34;18.80;;;12.48;;
57113;SDS011;42994;51.606;9.988;2022-12-20T01:42:00;21.00;;;12.10;;
57113;SDS011;42994;51.606;9.988;2022-12-20T01:47:18;17.50;;;11.55;;
57113;SDS011;42994;51.606;9.988;2022-12-20T01:49:46;17.80;;;11.50;;
57113;SDS011;42994;51.606;9.988;2022-12-20T01:52:19;20.30;;;11.48;;
57113;SDS011;42994;51.606;9.988;2022-12-20T01:54:51;23.15;;;12.27;;
57113;SDS011;42994;51.606;9.988;2022-12-20T01:57:23;24.58;;;13.15;;
57113;SDS011;42994;51.606;9.988;2022-12-20T01:59:55;21.85;;;12.10;;
57113;SDS011;42994;51.606;9.988;2022-12-20T02:02:23;25.25;;;12.85;;
57113;SDS011;42994;51.606;9.988;2022-12-20T02:04:50;22.48;;;12.65;;
57113;SDS011;42994;51.606;9.988;2022-12-20T02:07:17;25.63;;;13.57;;
57113;SDS011;42994;51.606;9.988;2022-12-20T02:09:51;25.90;;;13.00;;
57113;SDS011;42994;51.606;9.988;2022-12-20T02:12:19;23.40;;;13.73;;
57113;SDS011;42994;51.606;9.988;2022-12-20T02:14:53;21.65;;;12.43;;
57113;SDS011;42994;51.606;9.988;2022-12-20T02:17:34;22.15;;;12.70;;
57113;SDS011;42994;51.606;9.988;2022-12-20T02:20:21;21.52;;;11.45;;
57113;SDS011;42994;51.606;9.988;2022-12-20T02:23:35;27.20;;;13.70;;
57113;SDS011;42994;51.606;9.988;2022-12-20T02:26:19;21.52;;;11.75;;
57113;SDS011;42994;51.606;9.988;2022-12-20T02:29:12;25.45;;;13.40;;
57113;SDS011;42994;51.606;9.988;2022-12-20T02:31:51;21.80;;;11.93;;
57113;SDS011;42994;51.606;9.988;2022-12-20T02:34:23;23.15;;;13.20;;
57113;SDS011;42994;51.606;9.988;2022-12-20T02:36:51;23.65;;;13.07;;
57113;SDS011;42994;51.606;9.988;2022-12-20T02:39:18;21.40;;;12.27;;
57113;SDS011;42994;51.606;9.988;2022-12-20T02:41:49;19.30;;;11.82;;
57113;SDS011;42994;51.606;9.988;2022-12-20T02:44:18;26.95;;;13.85;;
57113;SDS011;42994;51.606;9.988;2022-12-20T02:47:09;25.73;;;13.30;;
57113;SDS011;42994;51.606;9.988;2022-12-20T02:49:39;23.65;;;13.68;;
57113;SDS011;42994;51.606;9.988;2022-12-20T02:52:08;24.83;;;12.25;;
57113;SDS011;42994;51.606;9.988;2022-12-20T02:54:37;26.90;;;13.15;;
57113;SDS011;42994;51.606;9.988;2022-12-20T02:57:05;27.42;;;12.70;;
57113;SDS011;42994;51.606;9.988;2022-12-20T02:59:38;19.75;;;12.73;;
57113;SDS011;42994;51.606;9.988;2022-12-20T03:02:11;29.17;;;14.70;;
57113;SDS011;42994;51.606;9.988;2022-12-20T03:04:39;23.70;;;13.70;;
57113;SDS011;42994;51.606;9.988;2022-12-20T03:07:07;24.65;;;13.68;;
57113;SDS011;42994;51.606;9.988;2022-12-20T03:09:37;27.40;;;13.70;;
57113;SDS011;42994;51.606;9.988;2022-12-20T03:12:06;21.45;;;13.00;;
57113;SDS011;42994;51.606;9.988;2022-12-20T03:14:36;24.52;;;13.73;;
57113;SDS011;42994;51.606;9.988;2022-12-20T03:17:06;26.80;;;14.38;;
57113;SDS011;42994;51.606;9.988;2022-12-20T03:19:35;22.70;;;12.43;;
57113;SDS011;42994;51.606;9.988;2022-12-20T03:22:01;22.02;;;13.00;;
57113;SDS011;42994;51.606;9.988;2022-12-20T03:24:29;19.40;;;13.27;;
57113;SDS011;42994;51.606;9.988;2022-12-20T03:26:58;23.55;;;11.80;;
57113;SDS011;42994;51.606;9.988;2022-12-20T03:29:25;19.83;;;12.90;;
57113;SDS011;42994;51.606;9.988;2022-12-20T03:31:52;23.58;;;13.55;;
57113;SDS011;42994;51.606;9.988;2022-12-20T03:34:18;22.77;;;13.60;;
57113;SDS011;42994;51.606;9.988;2022-12-20T03:36:47;27.85;;;13.93;;
57113;SDS011;42994;51.606;9.988;2022-12-20T03:39:14;24.02;;;13.18;;
57113;SDS011;42994;51.606;9.988;2022-12-20T03:41:41;22.42;;;13.02;;
57113;SDS011;42994;51.606;9.988;2022-12-20T03:44:09;26.50;;;13.93;;
57113;SDS011;42994;51.606;9.988;2022-12-20T03:46:36;26.98;;;13.93;;
57113;SDS011;42994;51.606;9.988;2022-12-20T03:49:03;25.30;;;14.23;;
57113;SDS011;42994;51.606;9.988;2022-12-20T03:51:34;26.23;;;13.77;;
57113;SDS011;42994;51.606;9.988;2022-12-20T03:54:03;21.40;;;12.85;;
57113;SDS011;42994;51.606;9.988;2022-12-20T03:56:52;25.25;;;13.85;;
57113;SDS011;42994;51.606;9.988;2022-12-20T03:59:20;23.73;;;13.30;;
57113;SDS011;42994;51.606;9.988;2022-12-20T04:01:47;25.15;;;13.80;;
57113;SDS011;42994;51.606;9.988;2022-12-20T04:04:14;25.60;;;13.10;;
57113;SDS011;42994;51.606;9.988;2022-12-20T04:06:42;24.25;;;13.13;;
57113;SDS011;42994;51.606;9.988;2022-12-20T04:09:11;26.17;;;13.25;;
57113;SDS011;42994;51.606;9.988;2022-12-20T04:11:44;25.95;;;13.82;;
57113;SDS011;42994;51.606;9.988;2022-12-20T04:14:13;20.48;;;12.05;;
57113;SDS011;42994;51.606;9.988;2022-12-20T04:16:40;24.30;;;14.45;;
57113;SDS011;42994;51.606;9.988;2022-12-20T04:19:08;22.00;;;12.95;;
57113;SDS011;42994;51.606;9.988;2022-12-20T04:21:39;22.70;;;13.68;;
57113;SDS011;42994;51.606;9.988;2022-12-20T04:24:06;23.45;;;13.27;;
57113;SDS011;42994;51.606;9.988;2022-12-20T04:26:41;20.92;;;12.75;;
57113;SDS011;42994;51.606;9.988;2022-12-20T04:29:10;23.35;;;13.38;;
57113;SDS011;42994;51.606;9.988;2022-12-20T04:31:38;21.33;;;12.50;;
57113;SDS011;42994;51.606;9.988;2022-12-20T04:34:05;21.55;;;12.05;;
57113;SDS011;42994;51.606;9.988;2022-12-20T04:36:33;20.13;;;12.85;;
57113;SDS011;42994;51.606;9.988;2022-12-20T04:39:03;23.73;;;13.60;;
57113;SDS011;42994;51.606;9.988;2022-12-20T04:41:39;25.65;;;14.00;;
57113;SDS011;42994;51.606;9.988;2022-12-20T04:44:11;23.50;;;13.93;;
57113;SDS011;42994;51.606;9.988;2022-12-20T04:46:37;23.05;;;13.63;;
57113;SDS011;42994;51.606;9.988;2022-12-20T04:49:09;27.40;;;13.88;;
57113;SDS011;42994;51.606;9.988;2022-12-20T04:51:38;19.65;;;12.50;;
57113;SDS011;42994;51.606;9.988;2022-12-20T04:54:05;24.98;;;14.23;;
57113;SDS011;42994;51.606;9.988;2022-12-20T04:56:39;28.92;;;14.18;;
57113;SDS011;42994;51.606;9.988;2022-12-20T04:59:10;23.58;;;13.50;;
57113;SDS011;42994;51.606;9.988;2022-12-20T05:01:40;24.03;;;13.90;;
57113;SDS011;42994;51.606;9.988;2022-12-20T05:04:07;22.83;;;12.65;;
57113;SDS011;42994;51.606;9.988;2022-12-20T05:06:35;25.33;;;14.02;;
57113;SDS011;42994;51.606;9.988;2022-12-20T05:09:02;22.15;;;12.80;;
57113;SDS011;42994;51.606;9.988;2022-12-20T05:11:30;21.77;;;12.90;;
57113;SDS011;42994;51.606;9.988;2022-12-20T05:13:57;24.13;;;12.68;;
57113;SDS011;42994;51.606;9.988;2022-12-20T05:16:25;22.58;;;14.05;;
57113;SDS011;42994;51.606;9.988;2022-12-20T05:18:52;21.00;;;12.70;;
57113;SDS011;42994;51.606;9.988;2022-12-20T05:21:19;24.48;;;13.63;;
57113;SDS011;42994;51.606;9.988;2022-12-20T05:24:05;22.52;;;12.07;;
57113;SDS011;42994;51.606;9.988;2022-12-20T05:26:56;25.50;;;16.53;;
57113;SDS011;42994;51.606;9.988;2022-12-20T05:29:24;24.85;;;16.58;;
57113;SDS011;42994;51.606;9.988;2022-12-20T05:31:53;19.17;;;12.88;;
57113;SDS011;42994;51.606;9.988;2022-12-20T05:34:19;21.70;;;12.55;;
57113;SDS011;42994;51.606;9.988;2022-12-20T05:36:51;19.45;;;11.60;;
57113;SDS011;42994;51.606;9.988;2022-12-20T05:39:19;18.38;;;12.15;;
57113;SDS011;42994;51.606;9.988;2022-12-20T05:41:48;26.55;;;13.02;;
57113;SDS011;42994;51.606;9.988;2022-12-20T05:44:15;17.02;;;11.25;;
57113;SDS011;42994;51.606;9.988;2022-12-20T05:46:45;22.27;;;12.20;;
57113;SDS011;42994;51.606;9.988;2022-12-20T05:49:18;19.77;;;11.15;;
57113;SDS011;42994;51.606;9.988;2022-12-20T05:51:45;25.00;;;13.00;;
57113;SDS011;42994;51.606;9.988;2022-12-20T05:54:20;19.55;;;11.32;;
57113;SDS011;42994;51.606;9.988;2022-12-20T05:56:59;18.70;;;12.25;;
57113;SDS011;42994;51.606;9.988;2022-12-20T05:59:33;20.33;;;11.38;;
57113;SDS011;42994;51.606;9.988;2022-12-20T06:02:01;18.33;;;10.43;;
57113;SDS011;42994;51.606;9.988;2022-12-20T06:04:29;18.25;;;10.80;;
57113;SDS011;42994;51.606;9.988;2022-12-20T06:06:56;14.73;;;10.35;;
57113;SDS011;42994;51.606;9.988;2022-12-20T06:09:24;19.35;;;10.85;;
57113;SDS011;42994;51.606;9.988;2022-12-20T06:12:00;19.30;;;10.65;;
57113;SDS011;42994;51.606;9.988;2022-12-20T06:14:28;19.77;;;10.35;;
57113;SDS011;42994;51.606;9.988;2022-12-20T06:16:55;18.65;;;11.57;;
57113;SDS011;42994;51.606;9.988;2022-12-20T06:19:22;20.40;;;10.90;;
57113;SDS011;42994;51.606;9.988;2022-12-20T06:21:53;20.60;;;11.80;;
57113;SDS011;42994;51.606;9.988;2022-12-20T06:24:29;19.20;;;10.25;;
57113;SDS011;42994;51.606;9.988;2022-12-20T06:26:56;17.10;;;11.00;;
57113;SDS011;42994;51.606;9.988;2022-12-20T06:29:24;20.17;;;10.57;;
57113;SDS011;42994;51.606;9.988;2022-12-20T06:32:02;22.73;;;10.98;;
57113;SDS011;42994;51.606;9.988;2022-12-20T06:34:30;16.30;;;10.23;;
57113;SDS011;42994;51.606;9.988;2022-12-20T06:36:58;19.30;;;10.88;;
57113;SDS011;42994;51.606;9.988;2022-12-20T06:39:28;17.63;;;10.57;;
57113;SDS011;42994;51.606;9.988;2022-12-20T06:42:01;17.70;;;10.90;;
57113;SDS011;42994;51.606;9.988;2022-12-20T06:44:28;19.48;;;11.02;;
57113;SDS011;42994;51.606;9.988;2022-12-20T06:46:55;24.88;;;11.38;;
57113;SDS011;42994;51.606;9.988;2022-12-20T06:49:22;21.67;;;10.82;;
57113;SDS011;42994;51.606;9.988;2022-12-20T06:51:49;23.63;;;11.55;;
57113;SDS011;42994;51.606;9.988;2022-12-20T06:54:22;18.20;;;11.23;;
57113;SDS011;42994;51.606;9.988;2022-12-20T06:56:49;19.77;;;12.07;;
57113;SDS011;42994;51.606;9.988;2022-12-20T06:59:16;18.45;;;11.50;;
57113;SDS011;42994;51.606;9.988;2022-12-20T07:01:43;16.67;;;11.88;;
57113;SDS011;42994;51.606;9.988;2022-12-20T07:04:09;21.63;;;11.85;;
57113;SDS011;42994;51.606;9.988;2022-12-20T07:06:36;17.08;;;10.77;;
57113;SDS011;42994;51.606;9.988;2022-12-20T07:09:03;18.13;;;10.57;;
57113;SDS011;42994;51.606;9.988;2022-12-20T07:11:31;19.13;;;10.45;;
57113;SDS011;42994;51.606;9.988;2022-12-20T07:13:58;18.65;;;10.38;;
57113;SDS011;42994;51.606;9.988;2022-12-20T07:16:25;22.60;;;12.13;;
57113;SDS011;42994;51.606;9.988;2022-12-20T07:18:52;18.80;;;11.07;;
57113;SDS011;42994;51.606;9.988;2022-12-20T07:21:19;19.55;;;11.35;;
57113;SDS011;42994;51.606;9.988;2022-12-20T07:23:47;20.40;;;12.68;;
57113;SDS011;42994;51.606;9.988;2022-12-20T07:26:14;19.15;;;11.38;;
57113;SDS011;42994;51.606;9.988;2022-12-20T07:28:42;17.13;;;10.25;;
57113;SDS011;42994;51.606;9.988;2022-12-20T07:31:09;17.70;;;10.77;;
57113;SDS011;42994;51.606;9.988;2022-12-20T07:33:36;20.85;;;11.30;;
57113;SDS011;42994;51.606;9.988;2022-12-20T07:36:03;17.73;;;10.20;;
57113;SDS011;42994;51.606;9.988;2022-12-20T07:38:31;17.10;;;9.95;;
57113;SDS011;42994;51.606;9.988;2022-12-20T07:40:59;16.77;;;10.05;;
57113;SDS011;42994;51.606;9.988;2022-12-20T07:43:26;19.92;;;10.30;;
57113;SDS011;42994;51.606;9.988;2022-12-20T07:45:55;17.48;;;10.82;;
57113;SDS011;42994;51.606;9.988;2022-12-20T07:48:22;18.30;;;10.32;;
57113;SDS011;42994;51.606;9.988;2022-12-20T07:50:50;23.08;;;10.00;;
57113;SDS011;42994;51.606;9.988;2022-12-20T07:53:18;18.77;;;12.27;;
57113;SDS011;42994;51.606;9.988;2022-12-20T07:55:46;17.52;;;10.60;;
57113;SDS011;42994;51.606;9.988;2022-12-20T07:58:14;18.80;;;10.93;;
57113;SDS011;42994;51.606;9.988;2022-12-20T08:00:43;17.58;;;10.13;;
57113;SDS011;42994;51.606;9.988;2022-12-20T08:03:12;16.52;;;9.80;;
57113;SDS011;42994;51.606;9.988;2022-12-20T08:05:43;16.83;;;9.82;;
57113;SDS011;42994;51.606;9.988;2022-12-20T08:08:15;17.77;;;9.75;;
57113;SDS011;42994;51.606;9.988;2022-12-20T08:10:43;17.50;;;9.80;;
57113;SDS011;42994;51.606;9.988;2022-12-20T08:13:10;17.35;;;9.63;;
57113;SDS011;42994;51.606;9.988;2022-12-20T08:15:38;14.93;;;9.98;;
57113;SDS011;42994;51.606;9.988;2022-12-20T08:18:05;21.35;;;10.52;;
57113;SDS011;42994;51.606;9.988;2022-12-20T08:20:33;18.20;;;10.32;;
57113;SDS011;42994;51.606;9.988;2022-12-20T08:23:01;20.08;;;10.05;;
57113;SDS011;42994;51.606;9.988;2022-12-20T08:25:28;13.05;;;8.95;;
57113;SDS011;42994;51.606;9.988;2022-12-20T08:27:55;15.30;;;9.13;;
57113;SDS011;42994;51.606;9.988;2022-12-20T08:30:22;20.92;;;9.15;;
57113;SDS011;42994;51.606;9.988;2022-12-20T08:32:48;13.40;;;8.50;;
57113;SDS011;42994;51.606;9.988;2022-12-20T08:35:15;15.57;;;9.35;;
57113;SDS011;42994;51.606;9.988;2022-12-20T08:37:43;17.25;;;9.20;;
57113;SDS011;42994;51.606;9.988;2022-12-20T08:40:10;18.73;;;9.25;;
57113;SDS011;42994;51.606;9.988;2022-12-20T08:42:37;35.05;;;11.00;;
57113;SDS011;42994;51.606;9.988;2022-12-20T08:45:04;25.90;;;9.23;;
57113;SDS011;42994;51.606;9.988;2022-12-20T08:47:31;15.20;;;8.65;;
57113;SDS011;42994;51.606;9.988;2022-12-20T08:49:58;15.52;;;8.00;;
57113;SDS011;42994;51.606;9.988;2022-12-20T08:52:25;18.10;;;10.25;;
57113;SDS011;42994;51.606;9.988;2022-12-20T08:54:54;13.85;;;8.73;;
57113;SDS011;42994;51.606;9.988;2022-12-20T08:57:21;15.68;;;7.93;;
57113;SDS011;42994;51.606;9.988;2022-12-20T08:59:48;10.60;;;7.43;;
57113;SDS011;42994;51.606;9.988;2022-12-20T09:02:14;15.48;;;9.00;;
57113;SDS011;42994;51.606;9.988;2022-12-20T09:04:41;14.90;;;8.07;;
57113;SDS011;42994;51.606;9.988;2022-12-20T09:07:08;15.57;;;8.13;;
57113;SDS011;42994;51.606;9.988;2022-12-20T09:09:35;13.35;;;8.02;;
57113;SDS011;42994;51.606;9.988;2022-12-20T09:12:03;12.45;;;8.10;;
57113;SDS011;42994;51.606;9.988;2022-12-20T09:14:31;12.63;;;8.38;;
57113;SDS011;42994;51.606;9.988;2022-12-20T09:16:58;12.73;;;8.38;;
57113;SDS011;42994;51.606;9.988;2022-12-20T09:19:25;13.40;;;8.15;;
57113;SDS011;42994;51.606;9.988;2022-12-20T09:21:52;14.50;;;8.27;;
57113;SDS011;42994;51.606;9.988;2022-12-20T09:24:19;10.20;;;7.15;;
57113;SDS011;42994;51.606;9.988;2022-12-20T09:26:46;12.23;;;8.02;;
57113;SDS011;42994;51.606;9.988;2022-12-20T09:29:14;13.57;;;7.75;;
57113;SDS011;42994;51.606;9.988;2022-12-20T09:31:41;13.25;;;8.32;;
57113;SDS011;42994;51.606;9.988;2022-12-20T09:34:07;12.13;;;7.85;;
57113;SDS011;42994;51.606;9.988;2022-12-20T09:36:35;12.15;;;7.38;;
57113;SDS011;42994;51.606;9.988;2022-12-20T09:39:02;14.48;;;9.30;;
57113;SDS011;42994;51.606;9.988;2022-12-20T09:41:30;14.95;;;7.70;;
57113;SDS011;42994;51.606;9.988;2022-12-20T09:46:31;16.27;;;9.93;;
57113;SDS011;42994;51.606;9.988;2022-12-20T09:48:59;15.70;;;8.15;;
57113;SDS011;42994;51.606;9.988;2022-12-20T09:51:33;10.23;;;6.72;;
57113;SDS011;42994;51.606;9.988;2022-12-20T09:54:13;12.07;;;6.75;;
57113;SDS011;42994;51.606;9.988;2022-12-20T09:56:50;12.35;;;7.55;;
57113;SDS011;42994;51.606;9.988;2022-12-20T09:59:25;12.45;;;8.45;;
57113;SDS011;42994;51.606;9.988;2022-12-20T10:01:54;13.82;;;7.72;;
57113;SDS011;42994;51.606;9.988;2022-12-20T10:04:21;15.38;;;7.68;;
57113;SDS011;42994;51.606;9.988;2022-12-20T10:06:56;10.23;;;7.38;;
57113;SDS011;42994;51.606;9.988;2022-12-20T10:09:56;10.45;;;6.90;;
57113;SDS011;42994;51.606;9.988;2022-12-20T10:12:43;13.68;;;6.90;;
57113;SDS011;42994;51.606;9.988;2022-12-20T10:15:18;11.27;;;7.75;;
57113;SDS011;42994;51.606;9.988;2022-12-20T10:17:53;12.82;;;7.32;;
57113;SDS011;42994;51.606;9.988;2022-12-20T10:20:33;10.07;;;7.03;;
57113;SDS011;42994;51.606;9.988;2022-12-20T10:23:10;11.40;;;6.88;;
57113;SDS011;42994;51.606;9.988;2022-12-20T10:25:48;12.27;;;7.22;;
57113;SDS011;42994;51.606;9.988;2022-12-20T10:28:15;11.48;;;7.03;;
57113;SDS011;42994;51.606;9.988;2022-12-20T10:30:45;12.02;;;6.72;;
57113;SDS011;42994;51.606;9.988;2022-12-20T10:33:15;8.93;;;5.90;;
57113;SDS011;42994;51.606;9.988;2022-12-20T10:35:45;11.02;;;6.30;;
57113;SDS011;42994;51.606;9.988;2022-12-20T10:38:13;10.02;;;6.18;;
57113;SDS011;42994;51.606;9.988;2022-12-20T10:40:42;11.63;;;6.20;;
57113;SDS011;42994;51.606;9.988;2022-12-20T10:43:13;9.15;;;5.70;;
57113;SDS011;42994;51.606;9.988;2022-12-20T10:45:42;12.82;;;8.10;;
57113;SDS011;42994;51.606;9.988;2022-12-20T10:48:24;7.20;;;5.38;;
57113;SDS011;42994;51.606;9.988;2022-12-20T10:50:55;7.88;;;6.13;;
57113;SDS011;42994;51.606;9.988;2022-12-20T10:53:23;25.83;;;14.85;;
57113;SDS011;42994;51.606;9.988;2022-12-20T10:55:51;8.73;;;5.40;;
57113;SDS011;42994;51.606;9.988;2022-12-20T10:58:29;10.50;;;6.00;;
57113;SDS011;42994;51.606;9.988;2022-12-20T11:01:03;10.50;;;5.95;;
57113;SDS011;42994;51.606;9.988;2022-12-20T11:03:35;8.38;;;4.80;;
57113;SDS011;42994;51.606;9.988;2022-12-20T11:06:16;9.15;;;6.20;;
57113;SDS011;42994;51.606;9.988;2022-12-20T11:08:43;10.75;;;5.20;;
57113;SDS011;42994;51.606;9.988;2022-12-20T11:11:11;9.27;;;5.25;;
57113;SDS011;42994;51.606;9.988;2022-12-20T11:13:41;9.27;;;5.45;;
57113;SDS011;42994;51.606;9.988;2022-12-20T11:16:22;8.15;;;5.10;;
57113;SDS011;42994;51.606;9.988;2022-12-20T11:18:55;9.57;;;5.35;;
57113;SDS011;42994;51.606;9.988;2022-12-20T11:21:33;9.50;;;4.93;;
57113;SDS011;42994;51.606;9.988;2022-12-20T11:24:08;8.00;;;5.25;;
57113;SDS011;42994;51.606;9.988;2022-12-20T11:26:41;10.27;;;5.82;;
57113;SDS011;42994;51.606;9.988;2022-12-20T11:29:27;9.63;;;5.82;;
57113;SDS011;42994;51.606;9.988;2022-12-20T11:32:12;8.63;;;5.57;;
57113;SDS011;42994;51.606;9.988;2022-12-20T11:34:49;8.50;;;5.05;;
57113;SDS011;42994;51.606;9.988;2022-12-20T11:37:24;9.13;;;5.07;;
57113;SDS011;42994;51.606;9.988;2022-12-20T11:39:59;5.95;;;4.78;;
57113;SDS011;42994;51.606;9.988;2022-12-20T11:42:36;9.13;;;5.28;;
57113;SDS011;42994;51.606;9.988;2022-12-20T11:45:27;6.65;;;5.03;;
57113;SDS011;42994;51.606;9.988;2022-12-20T11:48:08;8.20;;;5.28;;
57113;SDS011;42994;51.606;9.988;2022-12-20T11:51:02;7.30;;;4.70;;
57113;SDS011;42994;51.606;9.988;2022-12-20T11:53:35;6.03;;;4.57;;
57113;SDS011;42994;51.606;9.988;2022-12-20T11:56:06;9.00;;;5.40;;
57113;SDS011;42994;51.606;9.988;2022-12-20T11:58:43;9.02;;;5.10;;
57113;SDS011;42994;51.606;9.988;2022-12-20T12:01:16;9.60;;;5.72;;
57113;SDS011;42994;51.606;9.988;2022-12-20T12:03:48;9.15;;;5.80;;
57113;SDS011;42994;51.606;9.988;2022-12-20T12:06:24;12.75;;;6.57;;
57113;SDS011;42994;51.606;9.988;2022-12-20T12:08:57;13.80;;;7.90;;
57113;SDS011;42994;51.606;9.988;2022-12-20T12:11:32;10.27;;;6.32;;
57113;SDS011;42994;51.606;9.988;2022-12-20T12:14:03;9.43;;;5.90;;
57113;SDS011;42994;51.606;9.988;2022-12-20T12:16:32;9.45;;;6.10;;
57113;SDS011;42994;51.606;9.988;2022-12-20T12:19:03;9.88;;;6.10;;
57113;SDS011;42994;51.606;9.988;2022-12-20T12:21:37;7.63;;;5.07;;
57113;SDS011;42994;51.606;9.988;2022-12-20T12:24:11;9.70;;;5.70;;
57113;SDS011;42994;51.606;9.988;2022-12-20T12:26:44;9.77;;;5.93;;
57113;SDS011;42994;51.606;9.988;2022-12-20T12:29:11;7.47;;;5.15;;
57113;SDS011;42994;51.606;9.988;2022-12-20T12:31:41;8.73;;;5.72;;
57113;SDS011;42994;51.606;9.988;2022-12-20T12:34:13;8.07;;;5.75;;
57113;SDS011;42994;51.606;9.988;2022-12-20T12:37:13;10.77;;;6.40;;
57113;SDS011;42994;51.606;9.988;2022-12-20T12:39:57;8.43;;;5.33;;
57113;SDS011;42994;51.606;9.988;2022-12-20T12:42:55;8.98;;;5.13;;
57113;SDS011;42994;51.606;9.988;2022-12-20T12:45:35;9.00;;;5.45;;
57113;SDS011;42994;51.606;9.988;2022-12-20T12:48:07;8.73;;;5.80;;
57113;SDS011;42994;51.606;9.988;2022-12-20T12:50:41;7.63;;;5.18;;
57113;SDS011;42994;51.606;9.988;2022-12-20T12:53:13;7.35;;;5.13;;
57113;SDS011;42994;51.606;9.988;2022-12-20T12:55:43;9.45;;;4.93;;
57113;SDS011;42994;51.606;9.988;2022-12-20T12:58:12;8.27;;;4.88;;
57113;SDS011;42994;51.606;9.988;2022-12-20T13:01:04;7.72;;;5.05;;
57113;SDS011;42994;51.606;9.988;2022-12-20T13:03:35;7.28;;;5.07;;
57113;SDS011;42994;51.606;9.988;2022-12-20T13:06:41;9.60;;;5.50;;
57113;SDS011;42994;51.606;9.988;2022-12-20T13:09:34;8.45;;;5.47;;
57113;SDS011;42994;51.606;9.988;2022-12-20T13:18:22;17.35;;;7.07;;
57113;SDS011;42994;51.606;9.988;2022-12-20T13:26:57;9.25;;;5.88;;
57113;SDS011;42994;51.606;9.988;2022-12-20T13:29:26;9.52;;;5.28;;
57113;SDS011;42994;51.606;9.988;2022-12-20T13:31:58;9.00;;;5.78;;
57113;SDS011;42994;51.606;9.988;2022-12-20T13:34:35;8.25;;;5.15;;
57113;SDS011;42994;51.606;9.988;2022-12-20T13:39:52;10.38;;;6.90;;
57113;SDS011;42994;51.606;9.988;2022-12-20T13:42:31;8.15;;;5.55;;
57113;SDS011;42994;51.606;9.988;2022-12-20T13:45:03;11.13;;;5.53;;
57113;SDS011;42994;51.606;9.988;2022-12-20T13:47:36;10.13;;;5.22;;
57113;SDS011;42994;51.606;9.988;2022-12-20T13:50:22;9.13;;;5.57;;
57113;SDS011;42994;51.606;9.988;2022-12-20T13:52:53;12.18;;;6.32;;
57113;SDS011;42994;51.606;9.988;2022-12-20T13:55:25;8.30;;;5.75;;
57113;SDS011;42994;51.606;9.988;2022-12-20T13:57:58;11.27;;;5.72;;
57113;SDS011;42994;51.606;9.988;2022-12-20T14:00:30;10.07;;;6.05;;
57113;SDS011;42994;51.606;9.988;2022-12-20T14:02:57;9.63;;;6.70;;
57113;SDS011;42994;51.606;9.988;2022-12-20T14:05:30;11.48;;;6.25;;
57113;SDS011;42994;51.606;9.988;2022-12-20T14:08:00;14.32;;;11.02;;
57113;SDS011;42994;51.606;9.988;2022-12-20T14:10:30;11.73;;;6.68;;
57113;SDS011;42994;51.606;9.988;2022-12-20T14:13:01;11.80;;;5.80;;
57113;SDS011;42994;51.606;9.988;2022-12-20T14:15:28;7.97;;;4.88;;
57113;SDS011;42994;51.606;9.988;2022-12-20T14:17:56;6.90;;;5.20;;
57113;SDS011;42994;51.606;9.988;2022-12-20T14:20:30;11.55;;;6.88;;
57113;SDS011;42994;51.606;9.988;2022-12-20T14:23:00;7.13;;;4.95;;
57113;SDS011;42994;51.606;9.988;2022-12-20T14:25:30;8.80;;;5.38;;
57113;SDS011;42994;51.606;9.988;2022-12-20T14:28:04;8.63;;;5.55;;
57113;SDS011;42994;51.606;9.988;2022-12-20T14:30:40;7.75;;;5.63;;
57113;SDS011;42994;51.606;9.988;2022-12-20T14:33:16;11.25;;;5.82;;
57113;SDS011;42994;51.606;9.988;2022-12-20T14:35:46;8.40;;;5.45;;
57113;SDS011;42994;51.606;9.988;2022-12-20T14:38:19;14.43;;;7.55;;
57113;SDS011;42994;51.606;9.988;2022-12-20T14:40:47;15.20;;;8.38;;
57113;SDS011;42994;51.606;9.988;2022-12-20T14:43:20;10.23;;;5.55;;
57113;SDS011;42994;51.606;9.988;2022-12-20T14:46:05;6.63;;;5.18;;
57113;SDS011;42994;51.606;9.988;2022-12-20T14:48:33;11.80;;;6.25;;
57113;SDS011;42994;51.606;9.988;2022-12-20T14:51:02;10.15;;;6.93;;
57113;SDS011;42994;51.606;9.988;2022-12-20T14:53:30;13.50;;;6.20;;
57113;SDS011;42994;51.606;9.988;2022-12-20T14:55:57;9.55;;;5.07;;
57113;SDS011;42994;51.606;9.988;2022-12-20T14:58:25;8.07;;;5.28;;
57113;SDS011;42994;51.606;9.988;2022-12-20T15:00:54;8.30;;;5.10;;
57113;SDS011;42994;51.606;9.988;2022-12-20T15:03:22;9.88;;;5.38;;
57113;SDS011;42994;51.606;9.988;2022-12-20T15:05:49;10.15;;;5.80;;
57113;SDS011;42994;51.606;9.988;2022-12-20T15:08:18;10.68;;;6.07;;
57113;SDS011;42994;51.606;9.988;2022-12-20T15:10:48;7.38;;;5.22;;
57113;SDS011;42994;51.606;9.988;2022-12-20T15:13:19;8.82;;;5.72;;